createdAt,value
2017-08-22T00:02:15.983Z,2.70
2017-08-22T00:04:43.393Z,2.20
2017-08-22T00:07:10.328Z,2.50
2017-08-22T00:09:37.260Z,2.80
2017-08-22T00:12:04.303Z,2.17
2017-08-22T00:14:31.582Z,2.53
2017-08-22T00:16:59.073Z,2.23
2017-08-22T00:19:26.824Z,2.57
2017-08-22T00:21:53.732Z,2.43
2017-08-22T00:24:20.576Z,1.90
2017-08-22T00:26:51.189Z,2.50
2017-08-22T00:29:18.106Z,2.30
2017-08-22T00:31:45.914Z,2.37
2017-08-22T00:34:12.805Z,2.47
2017-08-22T00:36:39.662Z,2.60
2017-08-22T00:39:06.522Z,2.40
2017-08-22T00:41:33.432Z,2.30
2017-08-22T00:44:00.297Z,2.47
2017-08-22T00:46:27.222Z,2.50
2017-08-22T00:48:54.087Z,2.20
2017-08-22T00:51:21.662Z,2.60
2017-08-22T00:53:49.308Z,2.57
2017-08-22T00:56:16.202Z,2.77
2017-08-22T00:58:43.067Z,2.43
2017-08-22T01:01:09.943Z,2.20
2017-08-22T01:03:37.520Z,2.40
2017-08-22T01:06:04.860Z,2.40
2017-08-22T01:08:32.176Z,2.20
2017-08-22T01:10:59.884Z,2.67
2017-08-22T01:13:26.775Z,2.20
2017-08-22T01:15:54.614Z,2.40
2017-08-22T01:18:21.749Z,2.60
2017-08-22T01:20:48.654Z,2.87
2017-08-22T01:23:15.575Z,2.70
2017-08-22T01:25:42.547Z,2.13
2017-08-22T01:28:09.431Z,2.20
2017-08-22T01:30:36.330Z,2.20
2017-08-22T01:33:03.239Z,2.37
2017-08-22T01:35:30.667Z,2.27
2017-08-22T01:37:57.587Z,2.40
2017-08-22T01:40:24.542Z,2.23
2017-08-22T01:42:51.484Z,2.30
2017-08-22T01:45:18.552Z,2.57
2017-08-22T01:47:45.455Z,2.50
2017-08-22T01:50:12.342Z,2.50
2017-08-22T01:52:39.264Z,2.50
2017-08-22T01:55:06.911Z,2.10
2017-08-22T01:57:34.440Z,2.80
2017-08-22T02:00:02.284Z,2.37
2017-08-22T02:02:29.892Z,2.20
2017-08-22T02:04:56.965Z,2.20
2017-08-22T02:07:23.893Z,2.33
2017-08-22T02:09:50.791Z,2.67
2017-08-22T02:12:18.352Z,2.70
2017-08-22T02:14:45.247Z,2.47
2017-08-22T02:17:12.137Z,2.70
2017-08-22T02:19:39.002Z,2.90
2017-08-22T02:22:05.878Z,2.97
2017-08-22T02:24:32.778Z,2.80
2017-08-22T02:26:59.620Z,2.77
2017-08-22T02:29:26.441Z,2.83
2017-08-22T02:31:53.319Z,2.63
2017-08-22T02:34:20.712Z,2.70
2017-08-22T02:36:47.603Z,2.93
2017-08-22T02:39:14.481Z,2.60
2017-08-22T02:41:41.384Z,2.60
2017-08-22T02:44:08.231Z,2.60
2017-08-22T02:46:35.348Z,3.07
2017-08-22T02:49:03.169Z,2.57
2017-08-22T02:51:30.020Z,2.87
2017-08-22T02:53:56.992Z,2.70
2017-08-22T02:56:24.271Z,2.77
2017-08-22T02:58:54.228Z,3.03
2017-08-22T03:01:21.104Z,3.10
2017-08-22T03:03:48.016Z,3.10
2017-08-22T03:06:14.904Z,2.77
2017-08-22T03:08:41.813Z,3.10
2017-08-22T03:11:08.633Z,3.00
2017-08-22T03:13:35.451Z,3.20
2017-08-22T03:16:02.374Z,3.23
2017-08-22T03:18:29.258Z,2.80
2017-08-22T03:20:56.109Z,3.13
2017-08-22T03:23:24.120Z,3.30
2017-08-22T03:25:51.092Z,3.20
2017-08-22T03:28:17.966Z,3.33
2017-08-22T03:30:44.859Z,3.07
2017-08-22T03:33:11.779Z,2.97
2017-08-22T03:35:38.699Z,3.50
2017-08-22T03:38:05.630Z,3.37
2017-08-22T03:40:32.478Z,3.50
2017-08-22T03:42:59.753Z,3.70
2017-08-22T03:45:26.628Z,3.50
2017-08-22T03:47:53.531Z,4.10
2017-08-22T03:50:20.310Z,3.37
2017-08-22T03:52:47.192Z,3.60
2017-08-22T03:55:13.995Z,3.30
2017-08-22T03:57:40.858Z,4.30
2017-08-22T04:00:07.775Z,3.60
2017-08-22T04:02:34.684Z,3.60
2017-08-22T04:05:01.611Z,4.03
2017-08-22T04:07:28.449Z,3.67
2017-08-22T04:09:55.822Z,3.43
2017-08-22T04:12:22.700Z,3.70
2017-08-22T04:14:51.126Z,3.80
2017-08-22T04:17:17.975Z,3.93
2017-08-22T04:19:44.862Z,5.07
2017-08-22T04:22:12.308Z,4.40
2017-08-22T04:24:39.189Z,3.80
2017-08-22T04:27:06.426Z,4.20
2017-08-22T04:29:33.272Z,3.80
2017-08-22T04:32:00.135Z,3.80
2017-08-22T04:34:26.971Z,4.40
2017-08-22T04:36:54.109Z,4.00
2017-08-22T04:39:20.933Z,4.30
2017-08-22T04:41:47.813Z,4.10
2017-08-22T04:44:14.700Z,4.33
2017-08-22T04:46:41.601Z,4.40
2017-08-22T04:49:08.491Z,4.33
2017-08-22T04:51:35.373Z,4.33
2017-08-22T04:54:02.269Z,4.63
2017-08-22T04:56:29.169Z,4.80
2017-08-22T04:58:57.088Z,3.80
2017-08-22T05:01:24.952Z,4.30
2017-08-22T05:03:51.850Z,3.77
2017-08-22T05:06:18.778Z,4.27
2017-08-22T05:08:45.666Z,4.60
2017-08-22T05:11:12.530Z,3.97
2017-08-22T05:13:39.781Z,4.00
2017-08-22T05:16:06.688Z,3.57
2017-08-22T05:18:33.571Z,4.40
2017-08-22T05:21:00.582Z,3.90
2017-08-22T05:23:28.446Z,4.60
2017-08-22T05:25:55.778Z,4.50
2017-08-22T05:28:22.891Z,4.60
2017-08-22T05:30:50.904Z,4.10
2017-08-22T05:33:17.894Z,4.00
2017-08-22T05:35:44.989Z,3.87
2017-08-22T05:38:12.092Z,3.90
2017-08-22T05:40:40.433Z,4.27
2017-08-22T05:43:07.512Z,3.60
2017-08-22T05:45:34.462Z,3.63
2017-08-22T05:48:02.106Z,3.77
2017-08-22T05:50:29.967Z,4.00
2017-08-22T05:52:56.900Z,3.63
2017-08-22T05:55:23.747Z,3.83
2017-08-22T05:57:50.699Z,3.70
2017-08-22T06:00:17.609Z,3.90
2017-08-22T06:02:45.133Z,3.63
2017-08-22T06:05:12.122Z,4.27
2017-08-22T06:07:39.101Z,3.57
2017-08-22T06:10:05.995Z,3.33
2017-08-22T06:12:32.946Z,3.90
2017-08-22T06:14:59.904Z,3.83
2017-08-22T06:17:26.846Z,3.60
2017-08-22T06:19:53.816Z,3.73
2017-08-22T06:22:21.841Z,4.30
2017-08-22T06:24:49.462Z,4.00
2017-08-22T06:27:16.496Z,3.63
2017-08-22T06:29:43.464Z,4.00
2017-08-22T06:32:10.376Z,4.30
2017-08-22T06:34:37.377Z,3.60
2017-08-22T06:37:04.360Z,4.37
2017-08-22T06:39:39.189Z,3.90
2017-08-22T06:42:20.257Z,3.93
2017-08-22T07:04:08.656Z,3.67
2017-08-22T07:06:47.724Z,4.07
2017-08-22T07:09:23.098Z,4.03
2017-08-22T07:11:50.594Z,3.57
2017-08-22T07:14:17.514Z,4.07
2017-08-22T07:16:44.435Z,3.80
2017-08-22T07:19:11.322Z,3.90
2017-08-22T07:21:40.632Z,3.53
2017-08-22T07:24:08.195Z,4.00
2017-08-22T07:51:30.106Z,4.23
2017-08-22T07:53:57.010Z,4.20
2017-08-22T07:56:24.438Z,3.93
2017-08-22T07:58:51.558Z,4.07
2017-08-22T08:01:18.720Z,3.70
2017-08-22T08:03:45.623Z,3.57
2017-08-22T08:06:12.829Z,3.73
2017-08-22T08:08:39.862Z,3.57
2017-08-22T08:11:08.559Z,3.90
2017-08-22T08:18:49.276Z,3.60
2017-08-22T08:24:02.394Z,3.60
2017-08-22T08:26:29.361Z,3.60
2017-08-22T08:28:56.310Z,3.60
2017-08-22T08:31:23.284Z,3.50
2017-08-22T08:33:50.274Z,3.23
2017-08-22T08:36:17.934Z,3.80
2017-08-22T08:38:44.916Z,3.20
2017-08-22T08:41:11.844Z,3.40
2017-08-22T08:43:38.807Z,3.40
2017-08-22T08:46:05.905Z,3.77
2017-08-22T08:48:33.166Z,3.67
2017-08-22T08:51:02.720Z,3.60
2017-08-22T08:53:29.961Z,3.63
2017-08-22T08:55:56.863Z,3.50
2017-08-22T08:58:24.313Z,3.43
2017-08-22T09:00:54.279Z,3.20
2017-08-22T09:06:07.097Z,3.30
2017-08-22T09:08:34.074Z,3.50
2017-08-22T09:11:00.994Z,3.47
2017-08-22T09:13:27.901Z,3.40
2017-08-22T09:15:54.796Z,3.70
2017-08-22T09:18:21.767Z,3.67
2017-08-22T09:20:48.637Z,3.23
2017-08-22T09:23:15.512Z,3.30
2017-08-22T09:25:42.342Z,3.07
2017-08-22T09:28:09.219Z,3.17
2017-08-22T09:30:36.083Z,3.30
2017-08-22T09:33:02.915Z,2.80
2017-08-22T09:35:30.387Z,3.30
2017-08-22T09:37:57.268Z,3.10
2017-08-22T09:40:24.068Z,3.27
2017-08-22T09:42:50.906Z,3.10
2017-08-22T09:45:17.811Z,3.20
2017-08-22T09:47:44.681Z,2.83
2017-08-22T09:50:11.598Z,2.90
2017-08-22T09:52:38.787Z,3.10
2017-08-22T09:55:05.892Z,3.00
2017-08-22T09:57:33.244Z,3.20
2017-08-22T10:00:01.021Z,3.30
2017-08-22T10:02:28.107Z,3.00
2017-08-22T10:04:55.263Z,3.30
2017-08-22T10:07:23.529Z,3.03
2017-08-22T10:09:50.652Z,3.20
2017-08-22T10:12:17.836Z,3.00
2017-08-22T10:30:09.136Z,3.30
2017-08-22T10:40:37.231Z,3.10
2017-08-22T10:43:10.195Z,3.00
2017-08-22T10:53:27.976Z,2.90
2017-08-22T11:17:37.000Z,3.00
2017-08-22T11:20:04.153Z,2.77
2017-08-22T11:22:34.308Z,3.00
2017-08-22T11:27:53.344Z,3.23
2017-08-22T11:32:58.744Z,2.73
2017-08-22T11:35:27.955Z,3.23
2017-08-22T11:37:57.090Z,3.17
2017-08-22T11:45:38.723Z,3.20
2017-08-22T11:53:09.754Z,2.97
2017-08-22T12:00:54.331Z,3.07
2017-08-22T12:08:40.140Z,3.10
2017-08-22T12:11:09.895Z,3.60
2017-08-22T12:13:37.570Z,3.43
2017-08-22T12:16:08.147Z,3.47
2017-08-22T12:21:12.664Z,3.10
2017-08-22T12:23:40.371Z,3.20
2017-08-22T12:31:11.806Z,3.20
2017-08-22T12:36:12.492Z,3.47
2017-08-22T12:38:40.722Z,3.23
2017-08-22T12:41:09.995Z,3.23
2017-08-22T12:43:39.800Z,2.97
2017-08-22T12:46:09.283Z,3.20
2017-08-22T12:51:11.336Z,3.43
2017-08-22T12:56:14.518Z,3.37
2017-08-22T13:06:31.964Z,3.37
2017-08-22T13:09:02.273Z,3.53
2017-08-22T13:11:32.452Z,3.10
2017-08-22T15:19:07.360Z,3.27
2017-08-22T15:54:39.994Z,3.57
2017-08-22T15:57:07.092Z,4.77
2017-08-22T15:59:37.454Z,4.20
2017-08-22T16:02:04.509Z,5.30
2017-08-22T16:12:21.762Z,13.73
2017-08-22T16:20:14.557Z,4.50
2017-08-22T16:22:41.961Z,4.67
2017-08-22T16:25:11.520Z,6.53
2017-08-22T16:30:10.463Z,4.00
2017-08-22T16:35:11.819Z,5.83
2017-08-22T16:40:10.677Z,8.97
2017-08-22T16:42:44.355Z,9.47
2017-08-22T16:50:23.517Z,15.43
2017-08-22T16:55:22.431Z,19.87
2017-08-22T16:57:55.621Z,27.30
2017-08-22T17:00:25.718Z,23.90
2017-08-22T17:02:53.993Z,18.17
2017-08-22T17:07:53.147Z,17.03
2017-08-22T17:10:20.835Z,26.43
2017-08-22T17:12:48.061Z,29.33
2017-08-22T17:15:16.112Z,33.90
2017-08-22T17:17:43.181Z,28.90
2017-08-22T17:20:10.191Z,26.73
2017-08-22T17:22:37.373Z,14.77
2017-08-22T17:25:05.375Z,6.30
2017-08-22T17:27:32.448Z,4.77
2017-08-22T17:30:00.166Z,4.90
2017-08-22T17:32:27.538Z,5.20
2017-08-22T17:34:56.000Z,5.70
2017-08-22T17:37:23.026Z,5.30
2017-08-22T17:39:50.555Z,4.83
2017-08-22T17:42:18.320Z,5.20
2017-08-22T17:44:45.526Z,4.50
2017-08-22T17:52:16.918Z,9.40
2017-08-22T17:54:44.859Z,10.17
2017-08-22T17:57:13.018Z,4.87
2017-08-22T17:59:39.982Z,4.60
2017-08-22T18:02:06.955Z,3.90
2017-08-22T18:40:05.016Z,4.70
2017-08-22T18:42:33.250Z,4.27
2017-08-22T18:45:03.909Z,4.50
2017-08-22T18:53:06.806Z,4.20
2017-08-22T18:58:08.062Z,4.00
2017-08-22T19:05:38.068Z,5.50
2017-08-22T19:10:40.906Z,6.53
2017-08-22T19:13:09.388Z,5.93
2017-08-22T19:18:08.511Z,3.90
2017-08-22T19:20:35.492Z,4.30
2017-08-22T19:23:02.438Z,4.90
2017-08-22T19:25:29.915Z,4.53
2017-08-22T19:27:57.208Z,4.30
2017-08-22T19:30:24.230Z,4.07
2017-08-22T19:32:51.314Z,4.17
2017-08-22T19:35:18.257Z,4.80
2017-08-22T19:37:45.121Z,6.10
2017-08-22T19:40:12.151Z,5.00
2017-08-22T19:45:13.092Z,4.30
2017-08-22T19:47:42.797Z,4.80
2017-08-22T19:50:09.843Z,4.40
2017-08-22T19:52:38.036Z,3.57
2017-08-22T19:55:05.053Z,3.70
2017-08-22T19:57:32.620Z,4.07
2017-08-22T19:59:59.613Z,4.00
2017-08-22T20:02:26.888Z,3.57
2017-08-22T20:04:53.793Z,4.33
2017-08-22T20:07:21.024Z,5.27
2017-08-22T20:09:48.013Z,5.03
2017-08-22T20:12:14.962Z,3.77
2017-08-22T20:14:41.977Z,3.83
2017-08-22T20:17:09.014Z,3.40
2017-08-22T20:19:36.001Z,3.90
2017-08-22T20:22:03.010Z,3.57
2017-08-22T20:24:30.092Z,3.80
2017-08-22T20:26:56.986Z,3.70
2017-08-22T20:29:23.980Z,3.70
2017-08-22T20:31:50.870Z,4.57
2017-08-22T20:34:18.215Z,5.17
2017-08-22T20:36:46.105Z,5.10
2017-08-22T20:39:13.133Z,5.00
2017-08-22T20:41:41.068Z,5.57
2017-08-22T20:44:08.331Z,4.83
2017-08-22T20:46:35.368Z,4.90
2017-08-22T20:49:02.386Z,5.00
2017-08-22T20:51:29.324Z,4.10
2017-08-22T20:53:56.271Z,4.27
2017-08-22T20:56:23.475Z,4.60
2017-08-22T20:58:50.531Z,4.93
2017-08-22T21:01:17.876Z,6.23
2017-08-22T21:03:44.791Z,5.20
2017-08-22T21:06:11.743Z,4.63
2017-08-22T21:08:38.744Z,4.47
2017-08-22T21:11:05.666Z,4.63
2017-08-22T21:13:32.984Z,4.13
2017-08-22T21:15:59.912Z,4.40
2017-08-22T21:18:26.829Z,4.87
2017-08-22T21:20:53.815Z,5.30
2017-08-22T21:23:20.837Z,5.30
2017-08-22T21:25:47.752Z,5.40
2017-08-22T21:28:14.661Z,4.17
2017-08-22T21:30:41.885Z,4.03
2017-08-22T21:33:08.791Z,4.80
2017-08-22T21:35:35.737Z,4.67
2017-08-22T21:38:03.544Z,4.40
2017-08-22T21:40:30.398Z,4.13
2017-08-22T21:42:57.322Z,4.40
2017-08-22T21:45:24.282Z,4.30
2017-08-22T21:47:51.266Z,4.10
2017-08-22T21:50:18.183Z,4.27
2017-08-22T21:52:45.110Z,5.10
2017-08-22T21:55:12.016Z,4.37
2017-08-22T21:57:38.944Z,4.73
2017-08-22T22:00:05.852Z,4.27
2017-08-22T22:02:32.722Z,5.63
2017-08-22T22:04:59.640Z,4.50
2017-08-22T22:07:26.642Z,4.00
2017-08-22T22:09:53.696Z,4.20
2017-08-22T22:12:20.592Z,4.33
2017-08-22T22:14:47.484Z,4.43
2017-08-22T22:17:14.284Z,4.33
2017-08-22T22:19:42.283Z,5.00
2017-08-22T22:22:09.437Z,4.37
2017-08-22T22:24:36.344Z,4.00
2017-08-22T22:27:03.279Z,4.20
2017-08-22T22:29:30.187Z,3.80
2017-08-22T22:31:57.035Z,4.27
2017-08-22T22:34:23.869Z,4.07
2017-08-22T22:36:51.635Z,4.00
2017-08-22T22:39:18.481Z,4.47
2017-08-22T22:41:45.350Z,4.30
2017-08-22T22:44:12.268Z,4.60
2017-08-22T22:46:39.305Z,4.40
2017-08-22T22:49:06.157Z,4.37
2017-08-22T22:51:33.082Z,4.13
2017-08-22T22:54:00.248Z,3.60
2017-08-22T22:56:27.045Z,4.23
2017-08-22T22:58:55.074Z,4.43
2017-08-22T23:01:21.934Z,4.10
2017-08-22T23:03:48.804Z,4.10
2017-08-22T23:06:15.795Z,4.13
2017-08-22T23:08:47.014Z,3.93
2017-08-22T23:11:16.926Z,3.87
2017-08-22T23:13:43.803Z,4.60
2017-08-22T23:16:10.656Z,4.50
2017-08-22T23:18:37.816Z,4.43
2017-08-22T23:21:04.660Z,4.20
2017-08-22T23:23:31.463Z,4.23
2017-08-22T23:25:58.331Z,4.40
2017-08-22T23:28:25.150Z,4.10
2017-08-22T23:30:52.059Z,4.17
2017-08-22T23:33:19.172Z,4.70
2017-08-22T23:35:46.335Z,4.10
2017-08-22T23:38:13.227Z,3.87
2017-08-22T23:40:40.137Z,3.90
2017-08-22T23:43:07.026Z,4.47
2017-08-22T23:45:33.882Z,4.40
2017-08-22T23:48:00.760Z,3.83
2017-08-22T23:50:27.599Z,4.13
2017-08-22T23:52:54.491Z,4.33
2017-08-22T23:55:21.378Z,4.10
2017-08-22T23:57:48.241Z,4.20
